Maran Poseidon — SVAV3 — position and weather

sailwx.info

Track history (hours):
 
Tides and Currents Weather Stations Pressure Air Temp Water Temp Dewpoint Dewpoint Depression Visibility Wind Speed Wind Dir Waves Ship Positions

Maran Poseidon

Last reported at 2015-Jun-03 21:25 UTC. Time now 2015-Jul-30 16:14 UTC.
Position N 30°32' W 123°20'.
Warning: this ship's position is 56 days out of date.

Length 274 m; draft 9.5 m.

Type: Ship. MMSI: 240959000.

Date/timePositionNaut miles runAvg speedWind from/ knotsBaromVisibWave heightAir tempDewpointWater temp
2015-Jun-03 21:25N 30°32' W 123°20'414 8.9
2015-Jun-01 23:03N 37°26' W 123°15'511.0
2015-Jun-01 22:33N 37°30' W 123°11'1111.4
2015-Jun-01 21:33N 37°37' W 122°59'1211.4
2015-Jun-01 20:31N 37°43' W 122°47'1010.9
2015-Jun-01 19:34N 37°47' W 122°35'9 9.4
2015-Jun-01 18:33N 37°54' W 122°26'10 9.8
2015-Jun-01 17:33N 38°03' W 122°21'4 2.0
2015-Jun-01 15:30N 38°03' W 122°16'0 0.0
2015-Jun-01 14:30N 38°03' W 122°16'0 0.0
2015-Jun-01 13:31N 38°03' W 122°16'0 0.0
2015-Jun-01 12:33N 38°03' W 122°16'0 0.0
2015-Jun-01 11:33N 38°03' W 122°16'0 0.0
2015-Jun-01 10:31N 38°03' W 122°16'0 0.0
2015-Jun-01 09:31N 38°03' W 122°16'0 0.0
2015-Jun-01 08:32N 38°03' W 122°16'0 0.0
2015-Jun-01 07:33N 38°03' W 122°16'0 0.0
2015-Jun-01 06:32N 38°03' W 122°16'0 0.0
2015-Jun-01 05:33N 38°03' W 122°16'0 0.0
2015-Jun-01 02:33N 38°03' W 122°16'0 0.0
2015-Jun-01 01:33N 38°03' W 122°16'0 0.0
2015-Jun-01 00:33N 38°03' W 122°16'0 0.0
2015-May-31 23:32N 38°03' W 122°16'0 0.0
2015-May-31 22:32N 38°03' W 122°16'0 0.0
2015-May-31 21:33N 38°03' W 122°16'0 0.0
2015-May-31 20:33N 38°03' W 122°16'0 0.0
2015-May-31 19:33N 38°03' W 122°16'0 0.0
2015-May-31 18:33N 38°03' W 122°16'0 0.0
2015-May-31 17:32N 38°03' W 122°16'0 0.0
2015-May-31 16:30N 38°03' W 122°16'0 0.0
2015-May-31 15:32N 38°03' W 122°16'0 0.0
2015-May-31 14:33N 38°03' W 122°16'0 0.0
2015-May-31 13:33N 38°03' W 122°16'0 0.0
2015-May-31 12:30N 38°03' W 122°16'0 0.0
2015-May-31 11:33N 38°03' W 122°16'0 0.0
2015-May-31 10:32N 38°03' W 122°16'0 0.0
2015-May-31 09:28N 38°03' W 122°16'0 0.0
2015-May-31 08:33N 38°03' W 122°16'0 0.1
2015-May-31 07:33N 38°03' W 122°16'8 7.8
2015-May-31 06:33N 38°00' W 122°25'9 8.5
2015-May-31 05:33N 37°52' W 122°25'9 9.5
2015-May-31 04:33N 37°47' W 122°35'9 8.7
2015-May-31 03:33N 37°42' W 122°44'7 6.9
2015-May-31 02:33N 37°38' W 122°51'7 6.6
2015-May-31 01:33N 37°34' W 122°58'8 7.9
2015-May-31 00:33N 37°29' W 123°06'9 8.6
2015-May-30 23:33N 37°21' W 123°02'1110.6
2015-May-30 22:33N 37°12' W 122°56'1010.4
2015-May-30 21:33N 37°03' W 122°50'1111.3
2015-May-30 20:33N 36°52' W 122°45'1111.4
2015-May-30 19:33N 36°42' W 122°38'1111.1
2015-May-30 18:33N 36°32' W 122°32'1110.8
2015-May-30 17:33N 36°22' W 122°27'8 7.7
2015-May-30 16:33N 36°15' W 122°24'2613.2
2015-May-30 14:33N 35°51' W 122°09'4212.5
2015-May-30 11:10N 35°14' W 121°45'1412.4
2015-May-30 10:05N 35°04' W 121°34'612.4
2015-May-30 09:33N 34°59' W 121°29'1512.3
2015-May-30 08:22N 34°48' W 121°17'1212.4
2015-May-30 07:25N 34°39' W 121°07'1212.4
2015-May-30 06:25N 34°30' W 120°57'1412.2
2015-May-30 05:15N 34°24' W 120°41'1012.4
2015-May-30 04:27N 34°21' W 120°30'4611.7
2015-May-30 00:32N 34°09' W 119°37'1211.8
2015-May-29 23:32N 34°06' W 119°23'3811.8
2015-May-29 20:20N 33°49' W 118°42'1012.3
2015-May-29 19:33N 33°44' W 118°32'1211.8
2015-May-29 18:33N 33°38' W 118°20'8 8.5
2015-May-29 17:33N 33°43' W 118°11'2 1.4
2015-May-29 16:28N 33°44' W 118°10'0 0.1
2015-May-29 15:31N 33°44' W 118°09'0 0.0
2015-May-29 14:31N 33°44' W 118°09'0 0.1
2015-May-29 13:31N 33°44' W 118°09'0 0.1
2015-May-29 12:31N 33°44' W 118°09'0 0.0
2015-May-29 11:31N 33°44' W 118°09'0 0.1
2015-May-29 10:31N 33°44' W 118°09'0 0.0
2015-May-29 09:31N 33°44' W 118°09'0 0.0
2015-May-29 08:31N 33°44' W 118°09'0 0.0
2015-May-29 07:31N 33°44' W 118°09'0 0.0
2015-May-29 06:31N 33°44' W 118°09'0 0.0
2015-May-29 05:31N 33°44' W 118°09'0 0.0
2015-May-29 04:31N 33°44' W 118°09'0 0.0
2015-May-29 03:31N 33°44' W 118°09'0 0.0
2015-May-29 02:31N 33°44' W 118°09'0 0.0
2015-May-29 01:31N 33°44' W 118°09'0 0.0
2015-May-29 00:31N 33°44' W 118°09'0 0.0
2015-May-28 23:31N 33°44' W 118°09'0 0.1
2015-May-28 22:33N 33°44' W 118°09'0 0.0
2015-May-28 21:30N 33°44' W 118°09'0 0.0
2015-May-28 20:33N 33°44' W 118°09'0 0.1
2015-May-28 19:33N 33°44' W 118°09'0 0.0
2015-May-28 18:33N 33°44' W 118°09'0 0.0
2015-May-28 17:33N 33°44' W 118°09'0 0.1
2015-May-28 16:33N 33°44' W 118°09'0 0.0
2015-May-28 15:33N 33°44' W 118°09'0 0.1
2015-May-28 14:33N 33°44' W 118°09'0 0.0
2015-May-28 13:33N 33°44' W 118°09'0 0.0
2015-May-28 12:33N 33°44' W 118°09'0 0.1
2015-May-28 11:33N 33°44' W 118°09'0 0.0
2015-May-28 10:27N 33°44' W 118°09'0 0.1
2015-May-28 09:33N 33°44' W 118°09'0 0.0
2015-May-28 08:33N 33°44' W 118°09'0 0.0
2015-May-28 07:33N 33°44' W 118°09'0 0.0
2015-May-28 06:33N 33°44' W 118°09'0 0.0
2015-May-28 05:33N 33°44' W 118°09'0 0.0
2015-May-28 04:33N 33°44' W 118°09'0 0.0
2015-May-28 03:33N 33°44' W 118°09'0 0.0
2015-May-28 02:33N 33°44' W 118°09'0 0.0
2015-May-28 01:33N 33°44' W 118°09'0 0.0
2015-May-28 00:30N 33°44' W 118°09'0 0.0
2015-May-27 23:33N 33°44' W 118°09'0 0.0
2015-May-27 22:33N 33°44' W 118°09'0 0.0
2015-May-27 21:33N 33°44' W 118°09'0 0.0
2015-May-27 20:33N 33°44' W 118°09'0 0.0
2015-May-27 19:33N 33°44' W 118°09'0 0.0
2015-May-27 18:33N 33°44' W 118°09'0 0.0
2015-May-27 17:33N 33°44' W 118°09'0 0.0
2015-May-27 16:30N 33°44' W 118°09'0 0.0
2015-May-27 15:33N 33°44' W 118°09'0 0.0
2015-May-27 14:33N 33°44' W 118°09'0 0.1
2015-May-27 13:30N 33°44' W 118°09'0 0.0
2015-May-27 12:33N 33°44' W 118°09'0 0.0
2015-May-27 11:33N 33°44' W 118°09'0 0.1
2015-May-27 10:33N 33°44' W 118°09'0 0.0
2015-May-27 09:33N 33°44' W 118°09'0 0.0
2015-May-27 08:33N 33°44' W 118°09'0 0.0
2015-May-27 07:33N 33°44' W 118°09'0 0.0
2015-May-27 06:33N 33°44' W 118°09'0 0.0
2015-May-27 05:33N 33°44' W 118°09'0 0.0
2015-May-27 04:33N 33°44' W 118°09'0 0.0
2015-May-27 03:33N 33°44' W 118°09'0 0.0
2015-May-27 02:33N 33°44' W 118°09'0 0.0
2015-May-27 01:33N 33°44' W 118°09'0 0.0
2015-May-27 00:33N 33°44' W 118°09'0 0.0
2015-May-26 23:33N 33°44' W 118°09'0 0.0
2015-May-26 22:30N 33°44' W 118°09'0 0.0
2015-May-26 21:30N 33°44' W 118°09'0 0.0
2015-May-26 20:33N 33°44' W 118°09'0 0.0
2015-May-26 19:33N 33°44' W 118°09'0 0.0
2015-May-26 18:33N 33°44' W 118°09'0 0.1
2015-May-26 17:33N 33°44' W 118°09'0 0.0
2015-May-26 16:33N 33°44' W 118°09'0 0.1
2015-May-26 15:33N 33°44' W 118°09'0 0.0
2015-May-26 14:33N 33°44' W 118°09'0 0.0
2015-May-26 13:33N 33°44' W 118°09'0 0.1
2015-May-26 12:33N 33°44' W 118°09'0 0.0
2015-May-26 11:33N 33°44' W 118°09'0 0.0
2015-May-26 10:33N 33°44' W 118°09'0 0.0
2015-May-26 09:33N 33°44' W 118°09'0 0.1
2015-May-26 08:33N 33°44' W 118°09'0 0.0
2015-May-26 07:33N 33°44' W 118°09'0 0.0
2015-May-26 06:33N 33°44' W 118°09'0 0.0
2015-May-26 05:33N 33°44' W 118°09'0 0.0
2015-May-26 04:33N 33°44' W 118°09'0 0.0
2015-May-26 03:33N 33°44' W 118°09'0 0.0
2015-May-26 02:33N 33°44' W 118°09'0 0.0
2015-May-26 01:33N 33°44' W 118°09'0 0.0
2015-May-26 00:33N 33°44' W 118°09'0 0.1
2015-May-25 23:33N 33°44' W 118°09'0 0.1
2015-May-25 22:33N 33°44' W 118°09'0 0.0
2015-May-25 21:27N 33°44' W 118°09'0 0.1
2015-May-25 20:33N 33°44' W 118°09'0 0.1
2015-May-25 19:33N 33°44' W 118°09'0 0.1
2015-May-25 18:33N 33°44' W 118°09'0 0.0
2015-May-25 17:33N 33°44' W 118°09'0 0.0
2015-May-25 16:33N 33°44' W 118°09'0 0.0
2015-May-25 15:33N 33°44' W 118°09'0 0.0
2015-May-25 14:33N 33°44' W 118°09'0 0.0
2015-May-25 13:33N 33°44' W 118°09'0 0.0
2015-May-25 12:30N 33°44' W 118°09'0 0.1
2015-May-25 11:33N 33°44' W 118°09'0 0.0
2015-May-25 10:12N 33°44' W 118°09'0 0.0
2015-May-25 09:33N 33°44' W 118°09'0 0.0
2015-May-25 08:33N 33°44' W 118°09'0 0.0
2015-May-25 07:33N 33°44' W 118°09'0 0.0
2015-May-25 06:33N 33°44' W 118°09'0 0.0
2015-May-25 05:33N 33°44' W 118°09'0 0.0
2015-May-25 04:33N 33°44' W 118°09'0 0.0
2015-May-25 03:33N 33°44' W 118°09'0 0.0
2015-May-25 02:30N 33°44' W 118°09'0 0.0
2015-May-25 01:33N 33°44' W 118°09'0 0.0
2015-May-25 00:33N 33°44' W 118°09'0 0.0
2015-May-24 23:33N 33°44' W 118°09'0 0.0
2015-May-24 22:33N 33°44' W 118°09'0 0.0
2015-May-24 21:33N 33°44' W 118°09'  
Track history (hours):
 
Tides and Currents Weather Stations Pressure Air Temp Water Temp Dewpoint Dewpoint Depression Visibility Wind Speed Wind Dir Waves Ship Positions

Maran Poseidon

Last reported at 2015-Jun-03 21:25 UTC. Time now 2015-Jul-30 16:14 UTC.
Position N 30°32' W 123°20'.
Warning: this ship's position is 56 days out of date.

Length 274 m; draft 9.5 m.

Type: Ship. MMSI: 240959000.

Date/timePositionNaut miles runAvg speedWind from/ knotsBaromVisibWave heightAir tempDewpointWater temp
2015-Jun-03 21:25N 30°32' W 123°20'414 8.9
2015-Jun-01 23:03N 37°26' W 123°15'511.0
2015-Jun-01 22:33N 37°30' W 123°11'1111.4
2015-Jun-01 21:33N 37°37' W 122°59'1211.4
2015-Jun-01 20:31N 37°43' W 122°47'1010.9
2015-Jun-01 19:34N 37°47' W 122°35'9 9.4
2015-Jun-01 18:33N 37°54' W 122°26'10 9.8
2015-Jun-01 17:33N 38°03' W 122°21'4 2.0
2015-Jun-01 15:30N 38°03' W 122°16'0 0.0
2015-Jun-01 14:30N 38°03' W 122°16'0 0.0
2015-Jun-01 13:31N 38°03' W 122°16'0 0.0
2015-Jun-01 12:33N 38°03' W 122°16'0 0.0
2015-Jun-01 11:33N 38°03' W 122°16'0 0.0
2015-Jun-01 10:31N 38°03' W 122°16'0 0.0
2015-Jun-01 09:31N 38°03' W 122°16'0 0.0
2015-Jun-01 08:32N 38°03' W 122°16'0 0.0
2015-Jun-01 07:33N 38°03' W 122°16'0 0.0
2015-Jun-01 06:32N 38°03' W 122°16'0 0.0
2015-Jun-01 05:33N 38°03' W 122°16'0 0.0
2015-Jun-01 02:33N 38°03' W 122°16'0 0.0
2015-Jun-01 01:33N 38°03' W 122°16'0 0.0
2015-Jun-01 00:33N 38°03' W 122°16'0 0.0
2015-May-31 23:32N 38°03' W 122°16'0 0.0
2015-May-31 22:32N 38°03' W 122°16'0 0.0
2015-May-31 21:33N 38°03' W 122°16'0 0.0
2015-May-31 20:33N 38°03' W 122°16'0 0.0
2015-May-31 19:33N 38°03' W 122°16'0 0.0
2015-May-31 18:33N 38°03' W 122°16'0 0.0
2015-May-31 17:32N 38°03' W 122°16'0 0.0
2015-May-31 16:30N 38°03' W 122°16'0 0.0
2015-May-31 15:32N 38°03' W 122°16'0 0.0
2015-May-31 14:33N 38°03' W 122°16'0 0.0
2015-May-31 13:33N 38°03' W 122°16'0 0.0
2015-May-31 12:30N 38°03' W 122°16'0 0.0
2015-May-31 11:33N 38°03' W 122°16'0 0.0
2015-May-31 10:32N 38°03' W 122°16'0 0.0
2015-May-31 09:28N 38°03' W 122°16'0 0.0
2015-May-31 08:33N 38°03' W 122°16'0 0.1
2015-May-31 07:33N 38°03' W 122°16'8 7.8
2015-May-31 06:33N 38°00' W 122°25'9 8.5
2015-May-31 05:33N 37°52' W 122°25'9 9.5
2015-May-31 04:33N 37°47' W 122°35'9 8.7
2015-May-31 03:33N 37°42' W 122°44'7 6.9
2015-May-31 02:33N 37°38' W 122°51'7 6.6
2015-May-31 01:33N 37°34' W 122°58'8 7.9
2015-May-31 00:33N 37°29' W 123°06'9 8.6
2015-May-30 23:33N 37°21' W 123°02'1110.6
2015-May-30 22:33N 37°12' W 122°56'1010.4
2015-May-30 21:33N 37°03' W 122°50'1111.3
2015-May-30 20:33N 36°52' W 122°45'1111.4
2015-May-30 19:33N 36°42' W 122°38'1111.1
2015-May-30 18:33N 36°32' W 122°32'1110.8
2015-May-30 17:33N 36°22' W 122°27'8 7.7
2015-May-30 16:33N 36°15' W 122°24'2613.2
2015-May-30 14:33N 35°51' W 122°09'4212.5
2015-May-30 11:10N 35°14' W 121°45'1412.4
2015-May-30 10:05N 35°04' W 121°34'612.4
2015-May-30 09:33N 34°59' W 121°29'1512.3
2015-May-30 08:22N 34°48' W 121°17'1212.4
2015-May-30 07:25N 34°39' W 121°07'1212.4
2015-May-30 06:25N 34°30' W 120°57'1412.2
2015-May-30 05:15N 34°24' W 120°41'1012.4
2015-May-30 04:27N 34°21' W 120°30'4611.7
2015-May-30 00:32N 34°09' W 119°37'1211.8
2015-May-29 23:32N 34°06' W 119°23'3811.8
2015-May-29 20:20N 33°49' W 118°42'1012.3
2015-May-29 19:33N 33°44' W 118°32'1211.8
2015-May-29 18:33N 33°38' W 118°20'8 8.5
2015-May-29 17:33N 33°43' W 118°11'2 1.4
2015-May-29 16:28N 33°44' W 118°10'0 0.1
2015-May-29 15:31N 33°44' W 118°09'0 0.0
2015-May-29 14:31N 33°44' W 118°09'0 0.1
2015-May-29 13:31N 33°44' W 118°09'0 0.1
2015-May-29 12:31N 33°44' W 118°09'0 0.0
2015-May-29 11:31N 33°44' W 118°09'0 0.1
2015-May-29 10:31N 33°44' W 118°09'0 0.0
2015-May-29 09:31N 33°44' W 118°09'0 0.0
2015-May-29 08:31N 33°44' W 118°09'0 0.0
2015-May-29 07:31N 33°44' W 118°09'0 0.0
2015-May-29 06:31N 33°44' W 118°09'0 0.0
2015-May-29 05:31N 33°44' W 118°09'0 0.0
2015-May-29 04:31N 33°44' W 118°09'0 0.0
2015-May-29 03:31N 33°44' W 118°09'0 0.0
2015-May-29 02:31N 33°44' W 118°09'0 0.0
2015-May-29 01:31N 33°44' W 118°09'0 0.0
2015-May-29 00:31N 33°44' W 118°09'0 0.0
2015-May-28 23:31N 33°44' W 118°09'0 0.1
2015-May-28 22:33N 33°44' W 118°09'0 0.0
2015-May-28 21:30N 33°44' W 118°09'0 0.0
2015-May-28 20:33N 33°44' W 118°09'0 0.1
2015-May-28 19:33N 33°44' W 118°09'0 0.0
2015-May-28 18:33N 33°44' W 118°09'0 0.0
2015-May-28 17:33N 33°44' W 118°09'0 0.1
2015-May-28 16:33N 33°44' W 118°09'0 0.0
2015-May-28 15:33N 33°44' W 118°09'0 0.1
2015-May-28 14:33N 33°44' W 118°09'0 0.0
2015-May-28 13:33N 33°44' W 118°09'0 0.0
2015-May-28 12:33N 33°44' W 118°09'0 0.1
2015-May-28 11:33N 33°44' W 118°09'0 0.0
2015-May-28 10:27N 33°44' W 118°09'0 0.1
2015-May-28 09:33N 33°44' W 118°09'0 0.0
2015-May-28 08:33N 33°44' W 118°09'0 0.0
2015-May-28 07:33N 33°44' W 118°09'0 0.0
2015-May-28 06:33N 33°44' W 118°09'0 0.0
2015-May-28 05:33N 33°44' W 118°09'0 0.0
2015-May-28 04:33N 33°44' W 118°09'0 0.0
2015-May-28 03:33N 33°44' W 118°09'0 0.0
2015-May-28 02:33N 33°44' W 118°09'0 0.0
2015-May-28 01:33N 33°44' W 118°09'0 0.0
2015-May-28 00:30N 33°44' W 118°09'0 0.0
2015-May-27 23:33N 33°44' W 118°09'0 0.0
2015-May-27 22:33N 33°44' W 118°09'0 0.0
2015-May-27 21:33N 33°44' W 118°09'0 0.0
2015-May-27 20:33N 33°44' W 118°09'0 0.0
2015-May-27 19:33N 33°44' W 118°09'0 0.0
2015-May-27 18:33N 33°44' W 118°09'0 0.0
2015-May-27 17:33N 33°44' W 118°09'0 0.0
2015-May-27 16:30N 33°44' W 118°09'0 0.0
2015-May-27 15:33N 33°44' W 118°09'0 0.0
2015-May-27 14:33N 33°44' W 118°09'0 0.1
2015-May-27 13:30N 33°44' W 118°09'0 0.0
2015-May-27 12:33N 33°44' W 118°09'0 0.0
2015-May-27 11:33N 33°44' W 118°09'0 0.1
2015-May-27 10:33N 33°44' W 118°09'0 0.0
2015-May-27 09:33N 33°44' W 118°09'0 0.0
2015-May-27 08:33N 33°44' W 118°09'0 0.0
2015-May-27 07:33N 33°44' W 118°09'0 0.0
2015-May-27 06:33N 33°44' W 118°09'0 0.0
2015-May-27 05:33N 33°44' W 118°09'0 0.0
2015-May-27 04:33N 33°44' W 118°09'0 0.0
2015-May-27 03:33N 33°44' W 118°09'0 0.0
2015-May-27 02:33N 33°44' W 118°09'0 0.0
2015-May-27 01:33N 33°44' W 118°09'0 0.0
2015-May-27 00:33N 33°44' W 118°09'0 0.0
2015-May-26 23:33N 33°44' W 118°09'0 0.0
2015-May-26 22:30N 33°44' W 118°09'0 0.0
2015-May-26 21:30N 33°44' W 118°09'0 0.0
2015-May-26 20:33N 33°44' W 118°09'0 0.0
2015-May-26 19:33N 33°44' W 118°09'0 0.0
2015-May-26 18:33N 33°44' W 118°09'0 0.1
2015-May-26 17:33N 33°44' W 118°09'0 0.0
2015-May-26 16:33N 33°44' W 118°09'0 0.1
2015-May-26 15:33N 33°44' W 118°09'0 0.0
2015-May-26 14:33N 33°44' W 118°09'0 0.0
2015-May-26 13:33N 33°44' W 118°09'0 0.1
2015-May-26 12:33N 33°44' W 118°09'0 0.0
2015-May-26 11:33N 33°44' W 118°09'0 0.0
2015-May-26 10:33N 33°44' W 118°09'0 0.0
2015-May-26 09:33N 33°44' W 118°09'0 0.1
2015-May-26 08:33N 33°44' W 118°09'0 0.0
2015-May-26 07:33N 33°44' W 118°09'0 0.0
2015-May-26 06:33N 33°44' W 118°09'0 0.0
2015-May-26 05:33N 33°44' W 118°09'0 0.0
2015-May-26 04:33N 33°44' W 118°09'0 0.0
2015-May-26 03:33N 33°44' W 118°09'0 0.0
2015-May-26 02:33N 33°44' W 118°09'0 0.0
2015-May-26 01:33N 33°44' W 118°09'0 0.0
2015-May-26 00:33N 33°44' W 118°09'0 0.1
2015-May-25 23:33N 33°44' W 118°09'0 0.1
2015-May-25 22:33N 33°44' W 118°09'0 0.0
2015-May-25 21:27N 33°44' W 118°09'0 0.1
2015-May-25 20:33N 33°44' W 118°09'0 0.1
2015-May-25 19:33N 33°44' W 118°09'0 0.1
2015-May-25 18:33N 33°44' W 118°09'0 0.0
2015-May-25 17:33N 33°44' W 118°09'0 0.0
2015-May-25 16:33N 33°44' W 118°09'0 0.0
2015-May-25 15:33N 33°44' W 118°09'0 0.0
2015-May-25 14:33N 33°44' W 118°09'0 0.0
2015-May-25 13:33N 33°44' W 118°09'0 0.0
2015-May-25 12:30N 33°44' W 118°09'0 0.1
2015-May-25 11:33N 33°44' W 118°09'0 0.0
2015-May-25 10:12N 33°44' W 118°09'0 0.0
2015-May-25 09:33N 33°44' W 118°09'0 0.0
2015-May-25 08:33N 33°44' W 118°09'0 0.0
2015-May-25 07:33N 33°44' W 118°09'0 0.0
2015-May-25 06:33N 33°44' W 118°09'0 0.0
2015-May-25 05:33N 33°44' W 118°09'0 0.0
2015-May-25 04:33N 33°44' W 118°09'0 0.0
2015-May-25 03:33N 33°44' W 118°09'0 0.0
2015-May-25 02:30N 33°44' W 118°09'0 0.0
2015-May-25 01:33N 33°44' W 118°09'0 0.0
2015-May-25 00:33N 33°44' W 118°09'0 0.0
2015-May-24 23:33N 33°44' W 118°09'0 0.0
2015-May-24 22:33N 33°44' W 118°09'0 0.0
2015-May-24 21:33N 33°44' W 118°09'  

Dump ship's entire track history